createdAt,value
2017-09-11T00:00:54.583Z,14.20
2017-09-11T00:03:23.489Z,14.20
2017-09-11T00:05:53.123Z,14.20
2017-09-11T00:08:21.991Z,14.20
2017-09-11T00:10:50.887Z,14.30
2017-09-11T00:13:20.510Z,14.20
2017-09-11T00:15:49.376Z,14.20
2017-09-11T00:18:19.000Z,14.20
2017-09-11T00:20:48.652Z,14.10
2017-09-11T00:23:17.532Z,14.00
2017-09-11T00:25:47.261Z,14.00
2017-09-11T00:28:16.122Z,14.00
2017-09-11T00:31:18.932Z,14.10
2017-09-11T00:33:47.861Z,14.00
2017-09-11T00:36:16.740Z,14.00
2017-09-11T00:38:45.629Z,14.00
2017-09-11T00:41:14.527Z,14.00
2017-09-11T00:43:44.176Z,14.00
2017-09-11T00:46:13.038Z,14.00
2017-09-11T00:48:41.930Z,14.10
2017-09-11T00:51:10.100Z,14.10
2017-09-11T00:53:38.093Z,14.10
2017-09-11T00:56:07.028Z,14.00
2017-09-11T00:58:35.901Z,14.00
2017-09-11T01:01:04.422Z,14.00
2017-09-11T01:03:33.461Z,14.00
2017-09-11T01:06:05.923Z,13.90
2017-09-11T01:08:35.542Z,13.90
2017-09-11T01:11:04.898Z,13.90
2017-09-11T01:13:33.788Z,13.90
2017-09-11T01:16:02.650Z,13.90
2017-09-11T01:18:31.508Z,13.90
2017-09-11T01:21:00.442Z,13.90
2017-09-11T01:23:29.503Z,13.80
2017-09-11T01:25:58.455Z,13.80
2017-09-11T01:28:26.651Z,13.80
2017-09-11T01:30:55.176Z,13.90
2017-09-11T01:33:24.052Z,13.90
2017-09-11T01:35:53.694Z,13.80
2017-09-11T01:38:23.323Z,13.80
2017-09-11T01:40:52.980Z,13.80
2017-09-11T01:43:22.616Z,13.80
2017-09-11T01:45:52.329Z,13.80
2017-09-11T01:48:21.186Z,13.80
2017-09-11T01:50:50.859Z,13.80
2017-09-11T01:53:20.014Z,13.80
2017-09-11T01:55:48.861Z,13.80
2017-09-11T01:58:17.535Z,13.80
2017-09-11T02:00:46.424Z,13.80
2017-09-11T02:03:16.266Z,13.80
2017-09-11T02:05:45.192Z,13.80
2017-09-11T02:08:14.906Z,13.70
2017-09-11T02:10:43.753Z,13.70
2017-09-11T02:13:13.416Z,13.70
2017-09-11T02:15:42.294Z,13.70
2017-09-11T02:18:11.166Z,13.70
2017-09-11T02:20:41.640Z,13.60
2017-09-11T02:23:10.475Z,13.50
2017-09-11T02:25:40.201Z,13.60
2017-09-11T02:28:09.462Z,13.60
2017-09-11T02:30:38.304Z,13.60
2017-09-11T02:33:07.140Z,13.60
2017-09-11T02:35:36.010Z,13.50
2017-09-11T02:38:04.891Z,13.50
2017-09-11T02:40:34.704Z,13.50
2017-09-11T02:43:03.388Z,13.50
2017-09-11T02:45:32.513Z,13.50
2017-09-11T02:48:01.367Z,13.50
2017-09-11T02:50:30.228Z,13.40
2017-09-11T02:52:59.869Z,13.40
2017-09-11T02:55:28.507Z,13.40
2017-09-11T02:57:58.415Z,13.40
2017-09-11T03:00:27.268Z,13.40
2017-09-11T03:02:56.123Z,13.40
2017-09-11T03:05:25.862Z,13.40
2017-09-11T03:07:55.516Z,13.40
2017-09-11T03:10:24.377Z,13.40
2017-09-11T03:12:53.253Z,13.40
2017-09-11T03:15:22.113Z,13.40
2017-09-11T03:17:51.742Z,13.40
2017-09-11T03:20:20.780Z,13.40
2017-09-11T03:22:50.489Z,13.40
2017-09-11T03:25:19.361Z,13.40
2017-09-11T03:27:48.232Z,13.40
2017-09-11T03:30:17.079Z,13.40
2017-09-11T03:32:45.956Z,13.40
2017-09-11T03:35:15.263Z,13.30
2017-09-11T03:37:44.196Z,13.30
2017-09-11T03:40:13.828Z,13.40
2017-09-11T03:42:43.480Z,13.30
2017-09-11T03:45:12.357Z,13.30
2017-09-11T03:47:41.034Z,13.40
2017-09-11T03:50:10.652Z,13.40
2017-09-11T03:52:39.960Z,13.40
2017-09-11T03:55:08.535Z,13.40
2017-09-11T03:57:37.389Z,13.40
2017-09-11T04:00:06.251Z,13.40
2017-09-11T04:02:35.586Z,13.40
2017-09-11T04:05:05.508Z,13.40
2017-09-11T04:07:34.375Z,13.40
2017-09-11T04:10:04.014Z,13.40
2017-09-11T04:12:33.555Z,13.40
2017-09-11T04:15:02.423Z,13.40
2017-09-11T04:17:31.329Z,13.40
2017-09-11T04:20:00.191Z,13.40
2017-09-11T04:22:29.055Z,13.50
2017-09-11T04:24:57.903Z,13.50
2017-09-11T04:27:27.224Z,13.50
2017-09-11T04:29:57.056Z,13.50
2017-09-11T04:32:26.689Z,13.50
2017-09-11T04:34:55.574Z,13.50
2017-09-11T04:37:24.821Z,13.50
2017-09-11T04:39:54.499Z,13.50
2017-09-11T04:42:23.217Z,13.50
2017-09-11T04:44:56.337Z,13.50
2017-09-11T04:47:25.229Z,13.50
2017-09-11T04:49:55.459Z,13.50
2017-09-11T04:52:24.414Z,13.60
2017-09-11T04:54:54.194Z,13.60
2017-09-11T04:57:25.774Z,13.60
2017-09-11T04:59:55.913Z,13.60
2017-09-11T05:02:24.860Z,13.60
2017-09-11T05:04:53.984Z,13.70
2017-09-11T05:07:22.680Z,13.70
2017-09-11T05:09:51.361Z,13.70
2017-09-11T05:12:20.220Z,13.70
2017-09-11T05:14:49.128Z,13.80
2017-09-11T05:17:17.987Z,13.80
2017-09-11T05:19:47.599Z,13.80
2017-09-11T05:22:17.207Z,13.90
2017-09-11T05:24:46.843Z,13.90
2017-09-11T05:27:15.683Z,13.90
2017-09-11T05:29:45.145Z,14.00
2017-09-11T05:32:14.025Z,14.00
2017-09-11T05:34:42.886Z,14.10
2017-09-11T05:37:11.741Z,14.10
2017-09-11T05:39:40.259Z,14.20
2017-09-11T05:42:09.119Z,14.20
2017-09-11T05:44:38.789Z,14.20
2017-09-11T05:47:07.666Z,14.20
2017-09-11T05:49:37.308Z,14.30
2017-09-11T05:52:06.994Z,14.30
2017-09-11T05:54:35.897Z,14.40
2017-09-11T05:57:09.168Z,14.40
2017-09-11T05:59:38.959Z,14.50
2017-09-11T06:02:07.821Z,14.50
2017-09-11T06:04:37.955Z,14.60
2017-09-11T06:07:07.729Z,14.60
2017-09-11T06:09:40.881Z,14.70
2017-09-11T06:12:09.736Z,14.80
2017-09-11T06:14:38.608Z,14.90
2017-09-11T06:17:07.290Z,14.90
2017-09-11T06:31:09.448Z,15.10
2017-09-11T06:33:38.603Z,15.20
2017-09-11T06:36:08.752Z,15.20
2017-09-11T06:38:39.232Z,15.20
2017-09-11T06:41:08.088Z,15.20
2017-09-11T06:43:37.065Z,15.20
2017-09-11T06:46:05.942Z,15.30
2017-09-11T06:48:34.833Z,15.30
2017-09-11T06:51:03.723Z,15.30
2017-09-11T06:53:33.157Z,15.30
2017-09-11T06:56:02.629Z,15.30
2017-09-11T06:58:31.513Z,15.20
2017-09-11T07:01:01.152Z,15.30
2017-09-11T07:03:30.026Z,15.30
2017-09-11T07:05:59.649Z,15.50
2017-09-11T07:08:28.509Z,15.40
2017-09-11T07:10:58.183Z,15.60
2017-09-11T07:13:44.379Z,15.70
2017-09-11T07:16:12.948Z,15.70
2017-09-11T07:18:41.818Z,15.70
2017-09-11T07:21:10.492Z,15.80
2017-09-11T07:23:40.115Z,15.90
2017-09-11T07:26:09.727Z,16.00
2017-09-11T07:28:40.218Z,16.00
2017-09-11T07:31:09.676Z,16.10
2017-09-11T07:33:38.524Z,16.10
2017-09-11T07:36:08.152Z,16.20
2017-09-11T07:38:37.797Z,16.30
2017-09-11T07:41:06.639Z,16.30
2017-09-11T07:43:35.490Z,16.40
2017-09-11T07:46:05.407Z,16.50
2017-09-11T07:48:34.258Z,16.50
2017-09-11T07:51:03.112Z,16.60
2017-09-11T07:53:31.970Z,16.60
2017-09-11T07:56:01.009Z,16.90
2017-09-11T07:58:31.777Z,17.10
2017-09-11T08:01:00.635Z,17.50
2017-09-11T08:03:30.460Z,17.80
2017-09-11T08:06:00.132Z,18.40
2017-09-11T08:08:30.916Z,18.30
2017-09-11T08:11:00.251Z,18.80
2017-09-11T08:13:30.038Z,18.80
2017-09-11T08:15:58.880Z,19.00
2017-09-11T08:18:27.822Z,19.10
2017-09-11T08:20:57.441Z,19.50
2017-09-11T08:23:26.279Z,19.50
2017-09-11T08:25:55.134Z,19.50
2017-09-11T08:28:24.389Z,19.50
2017-09-11T08:30:54.186Z,19.40
2017-09-11T08:33:23.068Z,19.40
2017-09-11T08:35:51.906Z,19.30
2017-09-11T08:38:20.753Z,19.20
2017-09-11T08:40:49.613Z,19.20
2017-09-11T08:45:54.847Z,19.10
2017-09-11T08:48:24.169Z,19.10
2017-09-11T08:50:55.206Z,19.00
2017-09-11T08:53:24.062Z,19.00
2017-09-11T08:55:53.683Z,19.00
2017-09-11T08:58:23.948Z,19.00
2017-09-11T10:19:51.110Z,18.90
2017-09-11T10:22:21.400Z,20.70
2017-09-11T10:24:50.265Z,20.70
2017-09-11T10:27:19.107Z,20.70
2017-09-11T10:29:48.253Z,20.70
2017-09-11T10:32:17.113Z,20.70
2017-09-11T10:34:45.888Z,20.60
2017-09-11T10:37:15.505Z,20.70
2017-09-11T10:39:45.112Z,20.60
2017-09-11T10:42:14.727Z,20.70
2017-09-11T10:44:44.327Z,20.70
2017-09-11T10:47:13.929Z,20.80
2017-09-11T10:49:43.536Z,20.80
2017-09-11T10:52:13.143Z,21.00
2017-09-11T10:54:42.767Z,21.30
2017-09-11T10:57:12.376Z,21.60
2017-09-11T10:59:42.005Z,21.90
2017-09-11T11:02:10.849Z,21.90
2017-09-11T11:04:39.702Z,22.20
2017-09-11T11:07:08.566Z,22.30
2017-09-11T11:09:37.415Z,22.60
2017-09-11T11:12:07.321Z,22.80
2017-09-11T11:14:37.603Z,23.00
2017-09-11T11:17:07.509Z,23.30
2017-09-11T11:19:36.364Z,23.30
2017-09-11T11:22:04.952Z,23.50
2017-09-11T11:24:34.601Z,23.80
2017-09-11T11:27:03.476Z,23.70
2017-09-11T11:29:33.769Z,24.00
2017-09-11T11:32:02.638Z,24.00
2017-09-11T11:34:31.492Z,23.90
2017-09-11T11:37:00.342Z,23.80
2017-09-11T11:39:30.141Z,23.70
2017-09-11T11:41:59.004Z,23.60
2017-09-11T11:44:28.897Z,23.60
2017-09-11T11:46:57.757Z,23.80
2017-09-11T11:49:26.653Z,24.00
2017-09-11T11:51:55.552Z,24.20
2017-09-11T11:54:37.587Z,24.30
2017-09-11T11:57:06.463Z,24.30
2017-09-11T11:59:35.342Z,24.40
2017-09-11T12:02:06.201Z,24.60
2017-09-11T12:04:35.071Z,24.60
2017-09-11T12:07:04.707Z,24.80
2017-09-11T12:09:34.357Z,24.80
2017-09-11T12:12:03.207Z,25.00
2017-09-11T12:14:32.056Z,25.00
2017-09-11T12:17:00.948Z,25.20
2017-09-11T12:19:29.804Z,25.00
2017-09-11T12:21:59.701Z,25.00
2017-09-11T12:24:28.831Z,24.90
2017-09-11T12:26:57.511Z,25.10
2017-09-11T12:29:26.424Z,25.30
2017-09-11T12:31:54.995Z,25.40
2017-09-11T12:34:24.768Z,25.20
2017-09-11T12:36:53.748Z,25.20
2017-09-11T12:39:24.473Z,25.20
2017-09-11T12:41:54.125Z,25.10
2017-09-11T12:44:23.046Z,25.00
2017-09-11T12:46:52.939Z,24.80
2017-09-11T12:49:26.193Z,24.60
2017-09-11T12:51:56.717Z,24.40
2017-09-11T12:54:27.604Z,24.60
2017-09-11T12:56:58.165Z,24.60
2017-09-11T12:59:28.011Z,24.70
2017-09-11T13:01:56.956Z,25.00
2017-09-11T13:04:25.893Z,25.20
2017-09-11T13:06:58.590Z,25.40
2017-09-11T13:09:28.982Z,25.40
2017-09-11T13:11:58.892Z,25.30
2017-09-11T13:14:27.811Z,25.30
2017-09-11T13:16:56.716Z,25.40
2017-09-11T13:19:34.754Z,25.40
2017-09-11T13:22:26.053Z,25.50
2017-09-11T13:25:04.078Z,25.50
2017-09-11T13:30:39.722Z,25.60
2017-09-11T13:33:21.850Z,25.50
2017-09-11T13:36:09.530Z,25.60
2017-09-11T13:44:54.474Z,25.30
2017-09-11T13:53:04.201Z,24.70
2017-09-11T13:55:33.494Z,24.40
2017-09-11T13:58:03.531Z,24.20
2017-09-11T14:00:32.758Z,24.00
2017-09-11T14:03:02.451Z,23.70
2017-09-11T14:05:32.535Z,23.30
2017-09-11T14:08:01.357Z,23.30
2017-09-11T14:10:35.081Z,23.10
2017-09-11T14:13:03.812Z,22.90
2017-09-11T14:15:35.215Z,22.80
2017-09-11T14:18:05.491Z,22.70
2017-09-11T14:20:34.509Z,22.60
2017-09-11T14:23:04.199Z,22.60
2017-09-11T14:25:32.863Z,22.50
2017-09-11T14:28:11.474Z,22.30
2017-09-11T14:30:40.319Z,22.30
2017-09-11T14:33:10.670Z,22.30
2017-09-11T14:35:39.570Z,22.20
2017-09-11T14:38:09.211Z,22.30
2017-09-11T14:40:39.687Z,22.30
2017-09-11T14:43:09.912Z,22.20
2017-09-11T14:45:40.137Z,22.20
2017-09-11T14:48:09.935Z,22.20
2017-09-11T14:50:39.567Z,22.20
2017-09-11T14:53:08.289Z,22.20
2017-09-11T14:55:37.147Z,22.10
2017-09-11T14:58:06.998Z,22.00
2017-09-11T15:00:35.673Z,22.00
2017-09-11T15:03:05.110Z,22.00
2017-09-11T15:05:33.955Z,21.90
2017-09-11T15:08:02.817Z,21.90
2017-09-11T15:10:32.436Z,21.70
2017-09-11T15:13:01.104Z,21.70
2017-09-11T15:15:30.557Z,21.60
2017-09-11T15:17:59.408Z,21.60
2017-09-11T15:20:29.851Z,21.60
2017-09-11T15:22:58.712Z,21.50
2017-09-11T15:25:32.452Z,21.50
2017-09-11T15:28:01.904Z,21.40
2017-09-11T15:30:30.583Z,21.40
2017-09-11T15:32:59.607Z,21.40
2017-09-11T15:35:29.672Z,21.40
2017-09-11T15:37:58.351Z,21.40
2017-09-11T15:40:27.216Z,21.30
2017-09-11T15:42:57.401Z,21.30
2017-09-11T15:45:26.257Z,21.20
2017-09-11T15:47:55.124Z,21.20
2017-09-11T15:50:25.059Z,21.30
2017-09-11T15:52:54.745Z,21.30
2017-09-11T15:55:24.376Z,21.50
2017-09-11T15:57:53.296Z,21.50
2017-09-11T16:00:22.172Z,21.40
2017-09-11T16:02:51.026Z,21.40
2017-09-11T16:05:20.080Z,21.30
2017-09-11T16:07:48.960Z,21.30
2017-09-11T16:10:19.544Z,21.30
2017-09-11T16:12:49.161Z,21.40
2017-09-11T16:15:19.033Z,21.40
2017-09-11T16:17:47.912Z,21.40
2017-09-11T16:20:16.792Z,21.30
2017-09-11T16:22:45.682Z,21.40
2017-09-11T16:25:14.800Z,21.40
2017-09-11T16:27:43.471Z,21.50
2017-09-11T16:30:12.356Z,21.60
2017-09-11T16:32:41.780Z,21.50
2017-09-11T16:35:10.631Z,21.50
2017-09-11T16:37:40.356Z,21.50
2017-09-11T16:40:17.899Z,21.40
2017-09-11T16:42:47.934Z,21.40
2017-09-11T16:45:17.569Z,21.20
2017-09-11T16:47:46.464Z,21.20
2017-09-11T16:50:15.322Z,21.10
2017-09-11T16:52:44.179Z,21.00
2017-09-11T16:55:13.985Z,21.00
2017-09-11T18:22:41.480Z,20.90
2017-09-11T18:25:11.273Z,19.30
2017-09-11T18:27:41.228Z,19.10
2017-09-11T18:30:12.551Z,19.00
2017-09-11T18:32:42.930Z,19.00
2017-09-11T18:35:12.555Z,19.00
2017-09-11T18:37:41.450Z,18.90
2017-09-11T18:40:13.421Z,18.90
2017-09-11T18:42:46.694Z,18.90
2017-09-11T18:45:16.410Z,18.80
2017-09-11T18:47:45.278Z,18.70
2017-09-11T18:50:26.499Z,18.70
2017-09-11T18:52:56.043Z,18.60
2017-09-11T18:55:26.025Z,18.50
2017-09-11T18:57:54.895Z,18.50
2017-09-11T19:00:23.753Z,18.50
2017-09-11T19:02:53.886Z,18.70
2017-09-11T19:05:23.501Z,18.70
2017-09-11T19:07:52.665Z,18.60
2017-09-11T19:10:21.354Z,18.50
2017-09-11T19:12:50.681Z,18.40
2017-09-11T19:15:21.172Z,18.20
2017-09-11T19:17:50.741Z,18.10
2017-09-11T19:20:20.365Z,17.90
2017-09-11T19:22:49.294Z,17.90
2017-09-11T19:25:19.595Z,17.80
2017-09-11T19:27:48.449Z,17.80
2017-09-11T19:30:18.247Z,17.70
2017-09-11T19:32:47.099Z,17.60
2017-09-11T19:35:15.964Z,17.90
2017-09-11T19:37:45.626Z,17.80
2017-09-11T19:40:14.529Z,17.70
2017-09-11T19:42:43.994Z,17.70
2017-09-11T19:45:12.870Z,17.60
2017-09-11T19:47:41.539Z,17.60
2017-09-11T19:50:10.642Z,17.60
2017-09-11T19:52:39.309Z,17.50
2017-09-11T19:55:07.914Z,17.40
2017-09-11T19:57:37.744Z,17.50
2017-09-11T20:00:06.652Z,17.40
2017-09-11T20:02:35.507Z,17.40
2017-09-11T20:05:04.909Z,17.30
2017-09-11T20:07:34.436Z,17.30
2017-09-11T20:10:03.089Z,17.20
2017-09-11T20:12:31.770Z,17.20
2017-09-11T20:15:00.775Z,17.20
2017-09-11T20:17:29.442Z,17.20
2017-09-11T20:19:58.773Z,17.10
2017-09-11T20:22:27.640Z,17.00
2017-09-11T20:24:56.530Z,17.00
2017-09-11T20:27:26.149Z,17.00
2017-09-11T20:29:55.539Z,16.90
2017-09-11T20:32:25.456Z,16.80
2017-09-11T20:34:54.303Z,16.80
2017-09-11T20:37:24.258Z,16.80
2017-09-11T20:39:53.338Z,16.80
2017-09-11T20:42:22.976Z,16.70
2017-09-11T20:44:51.824Z,16.70
2017-09-11T20:47:20.960Z,16.70
2017-09-11T20:49:55.256Z,16.60
2017-09-11T20:52:24.892Z,16.60
2017-09-11T20:54:56.967Z,16.60
2017-09-11T21:00:03.452Z,16.40
2017-09-11T21:02:32.017Z,16.40
2017-09-11T21:05:03.486Z,16.40
2017-09-11T21:07:35.372Z,16.40
2017-09-11T21:10:09.246Z,16.40
2017-09-11T21:12:38.753Z,16.30
2017-09-11T21:15:07.593Z,16.30
2017-09-11T21:17:36.446Z,16.30
2017-09-11T21:20:05.583Z,16.20
2017-09-11T21:22:34.435Z,16.20
2017-09-11T21:25:03.306Z,16.20
2017-09-11T21:27:33.130Z,16.20
2017-09-11T21:30:01.985Z,16.20
2017-09-11T21:32:30.907Z,16.20
2017-09-11T21:34:59.765Z,16.20
2017-09-11T21:37:28.621Z,16.20
2017-09-11T21:39:57.925Z,16.20
2017-09-11T21:42:26.771Z,16.10
2017-09-11T21:44:56.494Z,16.00
2017-09-11T21:47:25.066Z,16.00
2017-09-11T21:49:55.525Z,16.00
2017-09-11T21:52:24.417Z,16.00
2017-09-11T21:54:58.822Z,15.90
2017-09-11T21:57:28.684Z,15.90
2017-09-11T21:59:57.813Z,15.90
2017-09-11T22:02:27.901Z,15.80
2017-09-11T22:04:56.823Z,15.80
2017-09-11T22:07:26.440Z,15.70
2017-09-11T22:09:55.855Z,15.70
2017-09-11T22:12:24.745Z,15.70
2017-09-11T22:14:54.610Z,15.70
2017-09-11T22:17:23.464Z,15.60
2017-09-11T22:19:52.303Z,15.60
2017-09-11T22:22:21.164Z,15.60
2017-09-11T22:24:50.018Z,15.60
2017-09-11T22:27:19.629Z,15.50
2017-09-11T22:29:48.504Z,15.50
2017-09-11T22:32:18.116Z,15.40
2017-09-11T22:34:47.730Z,15.40
2017-09-11T22:37:17.352Z,15.40
2017-09-11T22:39:46.197Z,15.40
2017-09-11T22:42:15.051Z,15.40
2017-09-11T22:44:43.717Z,15.40
2017-09-11T22:47:12.559Z,15.40
2017-09-11T22:49:41.208Z,15.30
2017-09-11T22:52:10.903Z,15.20
2017-09-11T22:54:39.751Z,15.20
2017-09-11T22:57:08.757Z,15.20
2017-09-11T22:59:38.393Z,15.20
2017-09-11T23:02:14.924Z,15.20
2017-09-11T23:04:45.870Z,15.20
2017-09-11T23:07:15.356Z,15.10
2017-09-11T23:09:44.621Z,15.10
2017-09-11T23:12:13.476Z,15.10
2017-09-11T23:14:42.327Z,15.10
2017-09-11T23:17:11.177Z,15.10
2017-09-11T23:19:40.848Z,15.00
2017-09-11T23:22:09.692Z,14.90
2017-09-11T23:24:38.553Z,15.00
2017-09-11T23:27:08.163Z,14.90
2017-09-11T23:29:37.777Z,15.00
2017-09-11T23:32:06.737Z,14.90
2017-09-11T23:34:35.600Z,14.90
2017-09-11T23:37:05.232Z,14.90
2017-09-11T23:39:34.079Z,14.90
2017-09-11T23:42:02.937Z,14.90
2017-09-11T23:44:31.788Z,14.80
2017-09-11T23:47:00.643Z,14.90
2017-09-11T23:49:30.291Z,14.90
2017-09-11T23:51:59.158Z,14.90
2017-09-11T23:54:28.000Z,14.90
2017-09-11T23:56:56.840Z,14.90
2017-09-11T23:59:27.191Z,14.90
